sensor_id;sensor_type;location;lat;lon;timestamp;P1;durP1;ratioP1;P2;durP2;ratioP2
25905;SDS011;13713;52.552;13.204;2023-03-01T00:01:59;53.90;;;34.40;;
25905;SDS011;13713;52.552;13.204;2023-03-01T00:04:25;54.08;;;35.53;;
25905;SDS011;13713;52.552;13.204;2023-03-01T00:06:52;54.03;;;35.03;;
25905;SDS011;13713;52.552;13.204;2023-03-01T00:09:18;52.03;;;35.22;;
25905;SDS011;13713;52.552;13.204;2023-03-01T00:11:44;56.63;;;34.67;;
25905;SDS011;13713;52.552;13.204;2023-03-01T00:14:10;54.25;;;35.80;;
25905;SDS011;13713;52.552;13.204;2023-03-01T00:16:37;55.10;;;34.92;;
25905;SDS011;13713;52.552;13.204;2023-03-01T00:19:04;50.80;;;34.40;;
25905;SDS011;13713;52.552;13.204;2023-03-01T00:21:32;49.70;;;33.15;;
25905;SDS011;13713;52.552;13.204;2023-03-01T00:23:58;48.92;;;33.35;;
25905;SDS011;13713;52.552;13.204;2023-03-01T00:26:25;47.65;;;33.47;;
25905;SDS011;13713;52.552;13.204;2023-03-01T00:28:51;51.67;;;33.95;;
25905;SDS011;13713;52.552;13.204;2023-03-01T00:31:21;50.63;;;33.20;;
25905;SDS011;13713;52.552;13.204;2023-03-01T00:36:17;47.85;;;31.00;;
25905;SDS011;13713;52.552;13.204;2023-03-01T00:38:44;49.75;;;33.03;;
25905;SDS011;13713;52.552;13.204;2023-03-01T00:41:12;45.75;;;31.30;;
25905;SDS011;13713;52.552;13.204;2023-03-01T00:43:40;47.97;;;30.48;;
25905;SDS011;13713;52.552;13.204;2023-03-01T00:46:08;50.75;;;32.33;;
25905;SDS011;13713;52.552;13.204;2023-03-01T00:48:36;46.05;;;30.65;;
25905;SDS011;13713;52.552;13.204;2023-03-01T00:51:09;49.97;;;32.75;;
25905;SDS011;13713;52.552;13.204;2023-03-01T00:53:37;50.50;;;31.77;;
25905;SDS011;13713;52.552;13.204;2023-03-01T00:56:03;46.72;;;31.65;;
25905;SDS011;13713;52.552;13.204;2023-03-01T00:58:30;45.95;;;30.38;;
25905;SDS011;13713;52.552;13.204;2023-03-01T01:00:56;43.65;;;30.30;;
25905;SDS011;13713;52.552;13.204;2023-03-01T01:03:22;44.55;;;30.08;;
25905;SDS011;13713;52.552;13.204;2023-03-01T01:05:50;48.58;;;31.40;;
25905;SDS011;13713;52.552;13.204;2023-03-01T01:08:16;48.85;;;31.45;;
25905;SDS011;13713;52.552;13.204;2023-03-01T01:10:43;45.70;;;29.30;;
25905;SDS011;13713;52.552;13.204;2023-03-01T01:13:10;44.50;;;30.17;;
25905;SDS011;13713;52.552;13.204;2023-03-01T01:15:35;44.92;;;30.00;;
25905;SDS011;13713;52.552;13.204;2023-03-01T01:18:01;42.30;;;28.58;;
25905;SDS011;13713;52.552;13.204;2023-03-01T01:20:27;43.72;;;29.23;;
25905;SDS011;13713;52.552;13.204;2023-03-01T01:22:53;46.65;;;29.45;;
25905;SDS011;13713;52.552;13.204;2023-03-01T01:25:19;46.40;;;28.92;;
25905;SDS011;13713;52.552;13.204;2023-03-01T01:27:45;43.70;;;28.70;;
25905;SDS011;13713;52.552;13.204;2023-03-01T01:30:11;39.05;;;27.85;;
25905;SDS011;13713;52.552;13.204;2023-03-01T01:32:37;42.78;;;28.63;;
25905;SDS011;13713;52.552;13.204;2023-03-01T01:35:03;43.70;;;28.58;;
25905;SDS011;13713;52.552;13.204;2023-03-01T01:37:29;40.00;;;28.05;;
25905;SDS011;13713;52.552;13.204;2023-03-01T01:40:00;41.50;;;27.10;;
25905;SDS011;13713;52.552;13.204;2023-03-01T01:42:29;40.67;;;27.00;;
25905;SDS011;13713;52.552;13.204;2023-03-01T01:47:52;40.95;;;27.92;;
25905;SDS011;13713;52.552;13.204;2023-03-01T01:50:20;39.42;;;26.83;;
25905;SDS011;13713;52.552;13.204;2023-03-01T01:52:47;41.63;;;27.70;;
25905;SDS011;13713;52.552;13.204;2023-03-01T01:55:16;43.58;;;27.98;;
25905;SDS011;13713;52.552;13.204;2023-03-01T01:57:48;39.03;;;26.42;;
25905;SDS011;13713;52.552;13.204;2023-03-01T02:00:21;43.13;;;27.27;;
25905;SDS011;13713;52.552;13.204;2023-03-01T02:02:50;39.28;;;25.83;;
25905;SDS011;13713;52.552;13.204;2023-03-01T02:08:23;42.63;;;28.48;;
25905;SDS011;13713;52.552;13.204;2023-03-01T02:10:51;39.08;;;26.27;;
25905;SDS011;13713;52.552;13.204;2023-03-01T02:13:19;39.08;;;26.15;;
25905;SDS011;13713;52.552;13.204;2023-03-01T02:15:45;39.53;;;26.75;;
25905;SDS011;13713;52.552;13.204;2023-03-01T02:18:12;37.28;;;25.05;;
25905;SDS011;13713;52.552;13.204;2023-03-01T02:23:24;40.40;;;26.20;;
25905;SDS011;13713;52.552;13.204;2023-03-01T02:30:56;42.58;;;27.08;;
25905;SDS011;13713;52.552;13.204;2023-03-01T02:33:40;37.63;;;25.20;;
25905;SDS011;13713;52.552;13.204;2023-03-01T02:36:09;36.72;;;24.13;;
25905;SDS011;13713;52.552;13.204;2023-03-01T02:38:47;36.90;;;25.25;;
25905;SDS011;13713;52.552;13.204;2023-03-01T02:41:15;38.42;;;25.48;;
25905;SDS011;13713;52.552;13.204;2023-03-01T02:43:44;37.30;;;24.85;;
25905;SDS011;13713;52.552;13.204;2023-03-01T02:46:17;34.90;;;23.80;;
25905;SDS011;13713;52.552;13.204;2023-03-01T02:48:50;40.17;;;25.27;;
25905;SDS011;13713;52.552;13.204;2023-03-01T02:51:31;36.08;;;24.45;;
25905;SDS011;13713;52.552;13.204;2023-03-01T02:54:24;36.83;;;24.60;;
25905;SDS011;13713;52.552;13.204;2023-03-01T02:56:56;36.17;;;24.08;;
25905;SDS011;13713;52.552;13.204;2023-03-01T02:59:27;38.92;;;24.48;;
25905;SDS011;13713;52.552;13.204;2023-03-01T03:01:56;38.67;;;24.98;;
25905;SDS011;13713;52.552;13.204;2023-03-01T03:04:22;34.50;;;23.40;;
25905;SDS011;13713;52.552;13.204;2023-03-01T03:06:49;34.88;;;24.00;;
25905;SDS011;13713;52.552;13.204;2023-03-01T03:09:17;34.80;;;23.33;;
25905;SDS011;13713;52.552;13.204;2023-03-01T03:11:44;36.25;;;24.17;;
25905;SDS011;13713;52.552;13.204;2023-03-01T03:14:12;34.65;;;24.55;;
25905;SDS011;13713;52.552;13.204;2023-03-01T03:16:43;34.97;;;23.35;;
25905;SDS011;13713;52.552;13.204;2023-03-01T03:19:11;33.85;;;23.35;;
25905;SDS011;13713;52.552;13.204;2023-03-01T03:21:37;32.58;;;22.23;;
25905;SDS011;13713;52.552;13.204;2023-03-01T03:24:03;35.83;;;24.25;;
25905;SDS011;13713;52.552;13.204;2023-03-01T03:26:30;32.72;;;22.92;;
25905;SDS011;13713;52.552;13.204;2023-03-01T03:28:56;31.45;;;22.83;;
25905;SDS011;13713;52.552;13.204;2023-03-01T03:31:22;36.20;;;24.00;;
25905;SDS011;13713;52.552;13.204;2023-03-01T03:33:48;36.05;;;24.33;;
25905;SDS011;13713;52.552;13.204;2023-03-01T03:36:17;31.63;;;22.35;;
25905;SDS011;13713;52.552;13.204;2023-03-01T03:38:45;33.55;;;23.13;;
25905;SDS011;13713;52.552;13.204;2023-03-01T03:41:11;31.90;;;22.67;;
25905;SDS011;13713;52.552;13.204;2023-03-01T03:43:38;33.25;;;22.80;;
25905;SDS011;13713;52.552;13.204;2023-03-01T03:46:05;32.97;;;22.23;;
25905;SDS011;13713;52.552;13.204;2023-03-01T03:48:39;32.10;;;22.60;;
25905;SDS011;13713;52.552;13.204;2023-03-01T03:51:09;33.38;;;22.17;;
25905;SDS011;13713;52.552;13.204;2023-03-01T03:53:35;32.97;;;22.02;;
25905;SDS011;13713;52.552;13.204;2023-03-01T03:56:01;32.72;;;22.30;;
25905;SDS011;13713;52.552;13.204;2023-03-01T03:58:27;35.22;;;22.75;;
25905;SDS011;13713;52.552;13.204;2023-03-01T04:00:53;31.73;;;21.60;;
25905;SDS011;13713;52.552;13.204;2023-03-01T04:03:23;33.90;;;22.42;;
25905;SDS011;13713;52.552;13.204;2023-03-01T04:05:51;29.90;;;21.10;;
25905;SDS011;13713;52.552;13.204;2023-03-01T04:08:18;33.25;;;22.33;;
25905;SDS011;13713;52.552;13.204;2023-03-01T04:10:47;32.10;;;22.52;;
25905;SDS011;13713;52.552;13.204;2023-03-01T04:13:19;32.17;;;21.80;;
25905;SDS011;13713;52.552;13.204;2023-03-01T04:15:50;30.98;;;21.08;;
25905;SDS011;13713;52.552;13.204;2023-03-01T04:18:17;31.35;;;21.75;;
25905;SDS011;13713;52.552;13.204;2023-03-01T04:20:44;31.63;;;21.63;;
25905;SDS011;13713;52.552;13.204;2023-03-01T04:25:55;29.83;;;20.90;;
25905;SDS011;13713;52.552;13.204;2023-03-01T04:28:23;29.25;;;20.42;;
25905;SDS011;13713;52.552;13.204;2023-03-01T04:30:55;31.15;;;21.20;;
25905;SDS011;13713;52.552;13.204;2023-03-01T04:33:22;31.23;;;20.48;;
25905;SDS011;13713;52.552;13.204;2023-03-01T04:35:50;30.20;;;21.25;;
25905;SDS011;13713;52.552;13.204;2023-03-01T04:38:16;30.00;;;19.85;;
25905;SDS011;13713;52.552;13.204;2023-03-01T04:40:43;28.55;;;19.95;;
25905;SDS011;13713;52.552;13.204;2023-03-01T04:43:09;31.52;;;21.42;;
25905;SDS011;13713;52.552;13.204;2023-03-01T04:45:36;27.23;;;19.88;;
25905;SDS011;13713;52.552;13.204;2023-03-01T04:48:02;30.15;;;20.10;;
25905;SDS011;13713;52.552;13.204;2023-03-01T04:50:28;27.30;;;19.58;;
25905;SDS011;13713;52.552;13.204;2023-03-01T04:52:54;30.48;;;20.60;;
25905;SDS011;13713;52.552;13.204;2023-03-01T04:55:24;28.15;;;18.80;;
25905;SDS011;13713;52.552;13.204;2023-03-01T04:57:51;30.75;;;20.67;;
25905;SDS011;13713;52.552;13.204;2023-03-01T05:00:18;31.38;;;21.15;;
25905;SDS011;13713;52.552;13.204;2023-03-01T05:05:20;30.27;;;20.23;;
25905;SDS011;13713;52.552;13.204;2023-03-01T05:07:51;28.40;;;19.85;;
25905;SDS011;13713;52.552;13.204;2023-03-01T05:10:27;27.08;;;19.63;;
25905;SDS011;13713;52.552;13.204;2023-03-01T05:12:54;26.42;;;18.40;;
25905;SDS011;13713;52.552;13.204;2023-03-01T05:15:22;27.48;;;19.15;;
25905;SDS011;13713;52.552;13.204;2023-03-01T05:17:52;26.88;;;18.80;;
25905;SDS011;13713;52.552;13.204;2023-03-01T05:20:19;29.25;;;19.77;;
25905;SDS011;13713;52.552;13.204;2023-03-01T05:22:49;28.27;;;18.90;;
25905;SDS011;13713;52.552;13.204;2023-03-01T05:25:16;28.60;;;20.08;;
25905;SDS011;13713;52.552;13.204;2023-03-01T05:27:42;29.13;;;19.80;;
25905;SDS011;13713;52.552;13.204;2023-03-01T05:30:08;27.48;;;19.45;;
25905;SDS011;13713;52.552;13.204;2023-03-01T05:32:41;28.50;;;19.70;;
25905;SDS011;13713;52.552;13.204;2023-03-01T05:35:14;26.65;;;18.75;;
25905;SDS011;13713;52.552;13.204;2023-03-01T05:37:42;28.58;;;19.25;;
25905;SDS011;13713;52.552;13.204;2023-03-01T05:40:10;29.50;;;19.73;;
25905;SDS011;13713;52.552;13.204;2023-03-01T05:42:47;26.77;;;18.38;;
25905;SDS011;13713;52.552;13.204;2023-03-01T05:45:15;25.15;;;18.60;;
25905;SDS011;13713;52.552;13.204;2023-03-01T05:47:42;25.73;;;18.60;;
25905;SDS011;13713;52.552;13.204;2023-03-01T05:50:32;29.88;;;20.58;;
25905;SDS011;13713;52.552;13.204;2023-03-01T05:55:23;28.77;;;20.13;;
25905;SDS011;13713;52.552;13.204;2023-03-01T05:57:49;26.33;;;18.13;;
25905;SDS011;13713;52.552;13.204;2023-03-01T06:00:16;26.05;;;18.85;;
25905;SDS011;13713;52.552;13.204;2023-03-01T06:02:44;25.83;;;19.13;;
25905;SDS011;13713;52.552;13.204;2023-03-01T06:05:10;28.08;;;19.00;;
25905;SDS011;13713;52.552;13.204;2023-03-01T06:07:37;26.05;;;18.90;;
25905;SDS011;13713;52.552;13.204;2023-03-01T06:10:03;28.58;;;19.60;;
25905;SDS011;13713;52.552;13.204;2023-03-01T06:12:31;24.73;;;17.73;;
25905;SDS011;13713;52.552;13.204;2023-03-01T06:14:57;25.65;;;18.35;;
25905;SDS011;13713;52.552;13.204;2023-03-01T06:17:24;27.33;;;19.45;;
25905;SDS011;13713;52.552;13.204;2023-03-01T06:19:49;33.88;;;23.80;;
25905;SDS011;13713;52.552;13.204;2023-03-01T06:22:15;34.42;;;24.85;;
25905;SDS011;13713;52.552;13.204;2023-03-01T06:24:41;37.85;;;25.77;;
25905;SDS011;13713;52.552;13.204;2023-03-01T06:27:06;34.35;;;25.13;;
25905;SDS011;13713;52.552;13.204;2023-03-01T06:29:33;30.67;;;22.35;;
25905;SDS011;13713;52.552;13.204;2023-03-01T06:31:59;39.83;;;25.90;;
25905;SDS011;13713;52.552;13.204;2023-03-01T06:34:24;31.40;;;22.40;;
25905;SDS011;13713;52.552;13.204;2023-03-01T06:36:50;34.50;;;24.27;;
25905;SDS011;13713;52.552;13.204;2023-03-01T06:39:16;33.05;;;23.42;;
25905;SDS011;13713;52.552;13.204;2023-03-01T06:41:43;33.40;;;23.15;;
25905;SDS011;13713;52.552;13.204;2023-03-01T06:44:09;31.83;;;21.25;;
25905;SDS011;13713;52.552;13.204;2023-03-01T06:46:35;35.92;;;22.05;;
25905;SDS011;13713;52.552;13.204;2023-03-01T06:49:00;44.85;;;23.02;;
25905;SDS011;13713;52.552;13.204;2023-03-01T06:51:26;32.25;;;22.25;;
25905;SDS011;13713;52.552;13.204;2023-03-01T06:53:52;28.00;;;19.42;;
25905;SDS011;13713;52.552;13.204;2023-03-01T06:56:17;29.85;;;19.67;;
25905;SDS011;13713;52.552;13.204;2023-03-01T06:58:43;36.92;;;25.02;;
25905;SDS011;13713;52.552;13.204;2023-03-01T07:01:09;32.90;;;22.92;;
25905;SDS011;13713;52.552;13.204;2023-03-01T07:03:35;30.00;;;20.75;;
25905;SDS011;13713;52.552;13.204;2023-03-01T07:06:00;30.20;;;20.35;;
25905;SDS011;13713;52.552;13.204;2023-03-01T07:08:26;31.45;;;21.02;;
25905;SDS011;13713;52.552;13.204;2023-03-01T07:10:58;30.77;;;21.40;;
25905;SDS011;13713;52.552;13.204;2023-03-01T07:13:24;30.30;;;21.23;;
25905;SDS011;13713;52.552;13.204;2023-03-01T07:15:50;30.67;;;20.80;;
25905;SDS011;13713;52.552;13.204;2023-03-01T07:18:16;29.27;;;20.48;;
25905;SDS011;13713;52.552;13.204;2023-03-01T07:20:42;30.48;;;20.63;;
25905;SDS011;13713;52.552;13.204;2023-03-01T07:23:07;27.15;;;18.55;;
25905;SDS011;13713;52.552;13.204;2023-03-01T07:25:33;31.63;;;20.88;;
25905;SDS011;13713;52.552;13.204;2023-03-01T07:27:59;36.88;;;24.80;;
25905;SDS011;13713;52.552;13.204;2023-03-01T07:30:25;62.75;;;37.35;;
25905;SDS011;13713;52.552;13.204;2023-03-01T07:32:53;68.13;;;42.47;;
25905;SDS011;13713;52.552;13.204;2023-03-01T07:35:20;82.55;;;49.97;;
25905;SDS011;13713;52.552;13.204;2023-03-01T07:37:46;66.22;;;43.25;;
25905;SDS011;13713;52.552;13.204;2023-03-01T07:40:12;96.78;;;59.28;;
25905;SDS011;13713;52.552;13.204;2023-03-01T07:42:38;85.07;;;53.17;;
25905;SDS011;13713;52.552;13.204;2023-03-01T07:45:04;78.53;;;50.50;;
25905;SDS011;13713;52.552;13.204;2023-03-01T07:47:31;91.70;;;55.90;;
25905;SDS011;13713;52.552;13.204;2023-03-01T07:49:56;92.63;;;58.83;;
25905;SDS011;13713;52.552;13.204;2023-03-01T07:52:22;85.07;;;52.53;;
25905;SDS011;13713;52.552;13.204;2023-03-01T07:54:48;91.80;;;56.55;;
25905;SDS011;13713;52.552;13.204;2023-03-01T07:57:14;106.25;;;61.03;;
25905;SDS011;13713;52.552;13.204;2023-03-01T07:59:39;97.90;;;56.20;;
25905;SDS011;13713;52.552;13.204;2023-03-01T08:02:05;119.47;;;65.90;;
25905;SDS011;13713;52.552;13.204;2023-03-01T08:04:32;132.75;;;77.80;;
25905;SDS011;13713;52.552;13.204;2023-03-01T08:06:58;110.68;;;62.47;;
25905;SDS011;13713;52.552;13.204;2023-03-01T08:09:24;116.85;;;68.35;;
25905;SDS011;13713;52.552;13.204;2023-03-01T08:11:50;123.35;;;72.43;;
25905;SDS011;13713;52.552;13.204;2023-03-01T08:14:15;117.35;;;64.55;;
25905;SDS011;13713;52.552;13.204;2023-03-01T08:16:41;111.65;;;64.25;;
25905;SDS011;13713;52.552;13.204;2023-03-01T08:19:11;122.65;;;72.65;;
25905;SDS011;13713;52.552;13.204;2023-03-01T08:21:37;120.07;;;69.60;;
25905;SDS011;13713;52.552;13.204;2023-03-01T08:24:04;120.45;;;66.70;;
25905;SDS011;13713;52.552;13.204;2023-03-01T08:26:31;113.25;;;64.70;;
25905;SDS011;13713;52.552;13.204;2023-03-01T08:28:58;109.63;;;64.13;;
25905;SDS011;13713;52.552;13.204;2023-03-01T08:31:35;113.68;;;64.47;;
25905;SDS011;13713;52.552;13.204;2023-03-01T08:34:07;105.68;;;61.80;;
25905;SDS011;13713;52.552;13.204;2023-03-01T08:36:39;103.50;;;60.38;;
25905;SDS011;13713;52.552;13.204;2023-03-01T08:39:10;111.32;;;62.88;;
25905;SDS011;13713;52.552;13.204;2023-03-01T08:41:38;113.82;;;65.80;;
25905;SDS011;13713;52.552;13.204;2023-03-01T08:44:05;117.70;;;66.65;;
25905;SDS011;13713;52.552;13.204;2023-03-01T08:46:35;140.60;;;75.40;;
25905;SDS011;13713;52.552;13.204;2023-03-01T08:49:06;120.10;;;65.45;;
25905;SDS011;13713;52.552;13.204;2023-03-01T08:51:34;126.95;;;71.63;;
25905;SDS011;13713;52.552;13.204;2023-03-01T08:54:05;144.40;;;76.43;;
25905;SDS011;13713;52.552;13.204;2023-03-01T08:56:32;134.43;;;74.63;;
25905;SDS011;13713;52.552;13.204;2023-03-01T08:58:58;131.65;;;72.88;;
25905;SDS011;13713;52.552;13.204;2023-03-01T09:01:24;119.93;;;69.28;;
25905;SDS011;13713;52.552;13.204;2023-03-01T09:03:50;128.98;;;74.93;;
25905;SDS011;13713;52.552;13.204;2023-03-01T09:06:16;132.02;;;73.63;;
25905;SDS011;13713;52.552;13.204;2023-03-01T09:08:44;125.80;;;70.50;;
25905;SDS011;13713;52.552;13.204;2023-03-01T09:11:12;132.70;;;69.80;;
25905;SDS011;13713;52.552;13.204;2023-03-01T09:13:41;121.30;;;65.93;;
25905;SDS011;13713;52.552;13.204;2023-03-01T09:16:07;128.85;;;68.75;;
25905;SDS011;13713;52.552;13.204;2023-03-01T09:18:34;122.57;;;68.30;;
25905;SDS011;13713;52.552;13.204;2023-03-01T09:21:02;131.15;;;69.75;;
25905;SDS011;13713;52.552;13.204;2023-03-01T09:23:38;127.97;;;68.05;;
25905;SDS011;13713;52.552;13.204;2023-03-01T09:26:11;138.63;;;71.82;;
25905;SDS011;13713;52.552;13.204;2023-03-01T09:28:44;135.82;;;71.78;;
25905;SDS011;13713;52.552;13.204;2023-03-01T09:31:11;127.30;;;70.70;;
25905;SDS011;13713;52.552;13.204;2023-03-01T09:33:38;142.93;;;74.40;;
25905;SDS011;13713;52.552;13.204;2023-03-01T09:36:05;181.15;;;82.95;;
25905;SDS011;13713;52.552;13.204;2023-03-01T09:38:33;151.02;;;77.85;;
25905;SDS011;13713;52.552;13.204;2023-03-01T09:41:02;139.10;;;74.65;;
25905;SDS011;13713;52.552;13.204;2023-03-01T09:43:56;147.95;;;71.85;;
25905;SDS011;13713;52.552;13.204;2023-03-01T09:46:29;127.78;;;68.85;;
25905;SDS011;13713;52.552;13.204;2023-03-01T09:49:05;127.97;;;70.03;;
25905;SDS011;13713;52.552;13.204;2023-03-01T09:51:54;128.10;;;71.68;;
25905;SDS011;13713;52.552;13.204;2023-03-01T09:54:25;143.63;;;75.90;;
25905;SDS011;13713;52.552;13.204;2023-03-01T09:57:04;140.32;;;77.07;;
25905;SDS011;13713;52.552;13.204;2023-03-01T10:02:41;151.68;;;82.78;;
25905;SDS011;13713;52.552;13.204;2023-03-01T10:10:38;183.43;;;94.25;;
25905;SDS011;13713;52.552;13.204;2023-03-01T10:13:55;172.27;;;97.00;;
25905;SDS011;13713;52.552;13.204;2023-03-01T10:16:19;152.77;;;88.30;;
25905;SDS011;13713;52.552;13.204;2023-03-01T10:18:52;163.13;;;96.43;;
25905;SDS011;13713;52.552;13.204;2023-03-01T10:21:23;167.27;;;95.88;;
25905;SDS011;13713;52.552;13.204;2023-03-01T10:23:49;158.93;;;92.65;;
25905;SDS011;13713;52.552;13.204;2023-03-01T10:29:02;164.32;;;96.10;;
25905;SDS011;13713;52.552;13.204;2023-03-01T10:31:53;154.80;;;93.93;;
25905;SDS011;13713;52.552;13.204;2023-03-01T10:34:27;142.75;;;86.35;;
25905;SDS011;13713;52.552;13.204;2023-03-01T10:36:56;147.25;;;88.90;;
25905;SDS011;13713;52.552;13.204;2023-03-01T10:39:26;145.23;;;86.45;;
25905;SDS011;13713;52.552;13.204;2023-03-01T10:41:56;151.63;;;91.47;;
25905;SDS011;13713;52.552;13.204;2023-03-01T10:44:57;185.48;;;102.00;;
25905;SDS011;13713;52.552;13.204;2023-03-01T10:49:52;163.98;;;98.40;;
25905;SDS011;13713;52.552;13.204;2023-03-01T10:52:21;163.90;;;96.28;;
25905;SDS011;13713;52.552;13.204;2023-03-01T10:54:54;147.48;;;90.25;;
25905;SDS011;13713;52.552;13.204;2023-03-01T10:57:36;145.43;;;87.70;;
25905;SDS011;13713;52.552;13.204;2023-03-01T11:00:18;146.80;;;87.75;;
25905;SDS011;13713;52.552;13.204;2023-03-01T11:02:50;141.60;;;84.72;;
25905;SDS011;13713;52.552;13.204;2023-03-01T11:05:36;138.13;;;82.93;;
25905;SDS011;13713;52.552;13.204;2023-03-01T11:08:02;125.70;;;71.47;;
25905;SDS011;13713;52.552;13.204;2023-03-01T11:13:15;119.15;;;70.82;;
25905;SDS011;13713;52.552;13.204;2023-03-01T11:15:43;127.78;;;73.82;;
25905;SDS011;13713;52.552;13.204;2023-03-01T11:18:23;105.90;;;65.10;;
25905;SDS011;13713;52.552;13.204;2023-03-01T11:20:51;106.72;;;61.35;;
25905;SDS011;13713;52.552;13.204;2023-03-01T11:23:20;116.40;;;67.22;;
25905;SDS011;13713;52.552;13.204;2023-03-01T11:26:21;127.15;;;73.25;;
25905;SDS011;13713;52.552;13.204;2023-03-01T11:28:40;118.78;;;72.47;;
25905;SDS011;13713;52.552;13.204;2023-03-01T11:31:10;116.40;;;68.43;;
25905;SDS011;13713;52.552;13.204;2023-03-01T11:33:44;120.15;;;71.70;;
25905;SDS011;13713;52.552;13.204;2023-03-01T11:39:58;121.32;;;68.72;;
25905;SDS011;13713;52.552;13.204;2023-03-01T11:42:13;125.50;;;73.60;;
25905;SDS011;13713;52.552;13.204;2023-03-01T11:44:40;137.88;;;78.65;;
25905;SDS011;13713;52.552;13.204;2023-03-01T11:52:43;137.18;;;79.28;;
25905;SDS011;13713;52.552;13.204;2023-03-01T12:11:16;110.00;;;64.10;;
25905;SDS011;13713;52.552;13.204;2023-03-01T12:16:53;146.65;;;86.78;;
25905;SDS011;13713;52.552;13.204;2023-03-01T12:22:46;153.13;;;92.32;;
25905;SDS011;13713;52.552;13.204;2023-03-01T12:37:10;160.10;;;94.85;;
25905;SDS011;13713;52.552;13.204;2023-03-01T12:51:28;172.80;;;109.78;;
25905;SDS011;13713;52.552;13.204;2023-03-01T12:53:56;162.40;;;102.15;;
25905;SDS011;13713;52.552;13.204;2023-03-01T12:56:25;152.10;;;95.68;;
25905;SDS011;13713;52.552;13.204;2023-03-01T12:58:57;156.02;;;95.68;;
25905;SDS011;13713;52.552;13.204;2023-03-01T13:02:05;146.02;;;91.22;;
25905;SDS011;13713;52.552;13.204;2023-03-01T13:07:57;182.73;;;112.78;;
25905;SDS011;13713;52.552;13.204;2023-03-01T13:13:18;175.05;;;110.45;;
25905;SDS011;13713;52.552;13.204;2023-03-01T13:15:47;173.13;;;109.00;;
25905;SDS011;13713;52.552;13.204;2023-03-01T13:20:47;156.20;;;99.63;;
25905;SDS011;13713;52.552;13.204;2023-03-01T13:36:11;129.65;;;85.25;;
25905;SDS011;13713;52.552;13.204;2023-03-01T13:42:25;148.65;;;91.78;;
25905;SDS011;13713;52.552;13.204;2023-03-01T13:45:01;129.50;;;83.53;;
25905;SDS011;13713;52.552;13.204;2023-03-01T13:47:28;124.03;;;79.40;;
25905;SDS011;13713;52.552;13.204;2023-03-01T13:49:59;130.07;;;79.18;;
25905;SDS011;13713;52.552;13.204;2023-03-01T13:55:21;114.88;;;75.28;;
25905;SDS011;13713;52.552;13.204;2023-03-01T13:57:56;115.70;;;73.28;;
25905;SDS011;13713;52.552;13.204;2023-03-01T14:03:22;123.20;;;82.80;;
25905;SDS011;13713;52.552;13.204;2023-03-01T14:08:32;138.13;;;92.13;;
25905;SDS011;13713;52.552;13.204;2023-03-01T14:11:10;148.63;;;99.68;;
25905;SDS011;13713;52.552;13.204;2023-03-01T14:16:29;159.98;;;99.53;;
25905;SDS011;13713;52.552;13.204;2023-03-01T14:19:21;131.95;;;89.65;;
25905;SDS011;13713;52.552;13.204;2023-03-01T14:24:37;127.07;;;82.20;;
25905;SDS011;13713;52.552;13.204;2023-03-01T14:27:09;139.63;;;86.65;;
25905;SDS011;13713;52.552;13.204;2023-03-01T14:29:38;129.13;;;79.78;;
25905;SDS011;13713;52.552;13.204;2023-03-01T14:34:51;139.52;;;82.70;;
25905;SDS011;13713;52.552;13.204;2023-03-01T14:39:57;149.30;;;93.38;;
25905;SDS011;13713;52.552;13.204;2023-03-01T14:42:26;139.15;;;86.75;;
25905;SDS011;13713;52.552;13.204;2023-03-01T14:44:56;162.90;;;102.18;;
25905;SDS011;13713;52.552;13.204;2023-03-01T14:47:33;162.10;;;102.13;;
25905;SDS011;13713;52.552;13.204;2023-03-01T14:50:23;153.48;;;96.05;;
25905;SDS011;13713;52.552;13.204;2023-03-01T14:52:52;154.73;;;93.65;;
25905;SDS011;13713;52.552;13.204;2023-03-01T14:57:58;148.05;;;91.63;;
25905;SDS011;13713;52.552;13.204;2023-03-01T15:00:25;136.77;;;85.00;;
25905;SDS011;13713;52.552;13.204;2023-03-01T15:02:58;141.10;;;86.72;;
25905;SDS011;13713;52.552;13.204;2023-03-01T15:07:53;137.20;;;86.95;;
25905;SDS011;13713;52.552;13.204;2023-03-01T15:10:23;132.20;;;81.65;;
25905;SDS011;13713;52.552;13.204;2023-03-01T15:12:54;176.90;;;110.80;;
25905;SDS011;13713;52.552;13.204;2023-03-01T15:18:05;188.43;;;114.07;;
25905;SDS011;13713;52.552;13.204;2023-03-01T15:20:45;179.10;;;110.10;;
25905;SDS011;13713;52.552;13.204;2023-03-01T15:23:18;176.52;;;107.95;;
25905;SDS011;13713;52.552;13.204;2023-03-01T15:25:52;181.88;;;107.68;;
25905;SDS011;13713;52.552;13.204;2023-03-01T15:28:23;179.07;;;106.07;;
25905;SDS011;13713;52.552;13.204;2023-03-01T15:31:00;162.32;;;97.55;;
25905;SDS011;13713;52.552;13.204;2023-03-01T15:33:38;161.23;;;93.73;;
25905;SDS011;13713;52.552;13.204;2023-03-01T15:53:52;160.82;;;94.68;;
25905;SDS011;13713;52.552;13.204;2023-03-01T16:00:09;160.27;;;94.90;;
25905;SDS011;13713;52.552;13.204;2023-03-01T16:06:37;162.40;;;89.93;;
25905;SDS011;13713;52.552;13.204;2023-03-01T16:12:43;158.98;;;92.97;;
25905;SDS011;13713;52.552;13.204;2023-03-01T16:15:23;165.65;;;90.85;;
25905;SDS011;13713;52.552;13.204;2023-03-01T16:17:52;167.82;;;89.88;;
25905;SDS011;13713;52.552;13.204;2023-03-01T16:21:08;165.68;;;87.88;;
25905;SDS011;13713;52.552;13.204;2023-03-01T16:28:47;181.13;;;88.30;;
25905;SDS011;13713;52.552;13.204;2023-03-01T16:38:55;173.60;;;88.97;;
25905;SDS011;13713;52.552;13.204;2023-03-01T16:41:30;169.57;;;91.05;;
25905;SDS011;13713;52.552;13.204;2023-03-01T16:56:46;173.10;;;92.32;;
25905;SDS011;13713;52.552;13.204;2023-03-01T17:22:20;159.75;;;90.65;;
25905;SDS011;13713;52.552;13.204;2023-03-01T17:25:01;162.10;;;89.47;;
25905;SDS011;13713;52.552;13.204;2023-03-01T17:29:02;171.75;;;90.95;;
25905;SDS011;13713;52.552;13.204;2023-03-01T17:34:51;161.63;;;90.95;;
25905;SDS011;13713;52.552;13.204;2023-03-01T17:38:17;163.27;;;90.25;;
25905;SDS011;13713;52.552;13.204;2023-03-01T17:40:43;166.27;;;95.13;;
25905;SDS011;13713;52.552;13.204;2023-03-01T17:43:11;180.98;;;97.32;;
25905;SDS011;13713;52.552;13.204;2023-03-01T17:45:37;185.13;;;100.40;;
25905;SDS011;13713;52.552;13.204;2023-03-01T17:48:04;179.52;;;97.43;;
25905;SDS011;13713;52.552;13.204;2023-03-01T17:50:30;172.13;;;99.43;;
25905;SDS011;13713;52.552;13.204;2023-03-01T17:52:56;176.00;;;98.07;;
25905;SDS011;13713;52.552;13.204;2023-03-01T17:55:22;181.88;;;97.80;;
25905;SDS011;13713;52.552;13.204;2023-03-01T17:57:48;176.52;;;99.90;;
25905;SDS011;13713;52.552;13.204;2023-03-01T18:00:15;166.98;;;96.93;;
25905;SDS011;13713;52.552;13.204;2023-03-01T18:02:41;172.15;;;96.18;;
25905;SDS011;13713;52.552;13.204;2023-03-01T18:05:08;166.52;;;96.15;;
25905;SDS011;13713;52.552;13.204;2023-03-01T18:07:34;176.60;;;93.68;;
25905;SDS011;13713;52.552;13.204;2023-03-01T18:10:00;164.00;;;92.88;;